sensor_id;sensor_type;location;lat;lon;timestamp;P1;durP1;ratioP1;P2;durP2;ratioP2
60641;SDS011;46837;52.446;-1.930;2023-09-12T00:00:07;3.44;;;2.12;;
60641;SDS011;46837;52.446;-1.930;2023-09-12T00:01:07;4.82;;;2.46;;
60641;SDS011;46837;52.446;-1.930;2023-09-12T00:02:07;3.26;;;1.70;;
60641;SDS011;46837;52.446;-1.930;2023-09-12T00:03:07;2.00;;;1.68;;
60641;SDS011;46837;52.446;-1.930;2023-09-12T00:04:07;3.68;;;2.24;;
60641;SDS011;46837;52.446;-1.930;2023-09-12T00:05:07;3.50;;;1.96;;
60641;SDS011;46837;52.446;-1.930;2023-09-12T00:06:07;2.08;;;1.24;;
60641;SDS011;46837;52.446;-1.930;2023-09-12T00:07:07;2.32;;;1.90;;
60641;SDS011;46837;52.446;-1.930;2023-09-12T00:08:07;4.18;;;1.64;;
60641;SDS011;46837;52.446;-1.930;2023-09-12T00:09:09;1.78;;;1.64;;
60641;SDS011;46837;52.446;-1.930;2023-09-12T00:10:07;2.34;;;1.96;;
60641;SDS011;46837;52.446;-1.930;2023-09-12T00:11:08;2.08;;;1.44;;
60641;SDS011;46837;52.446;-1.930;2023-09-12T00:12:07;5.84;;;2.16;;
60641;SDS011;46837;52.446;-1.930;2023-09-12T00:13:07;2.60;;;1.40;;
60641;SDS011;46837;52.446;-1.930;2023-09-12T00:14:08;7.24;;;2.06;;
60641;SDS011;46837;52.446;-1.930;2023-09-12T00:15:07;2.14;;;1.94;;
60641;SDS011;46837;52.446;-1.930;2023-09-12T00:16:07;1.84;;;1.68;;
60641;SDS011;46837;52.446;-1.930;2023-09-12T00:17:07;1.66;;;1.56;;
60641;SDS011;46837;52.446;-1.930;2023-09-12T00:18:07;3.62;;;1.86;;
60641;SDS011;46837;52.446;-1.930;2023-09-12T00:19:07;2.22;;;1.82;;
60641;SDS011;46837;52.446;-1.930;2023-09-12T00:20:07;2.10;;;1.66;;
60641;SDS011;46837;52.446;-1.930;2023-09-12T00:21:07;3.24;;;2.18;;
60641;SDS011;46837;52.446;-1.930;2023-09-12T00:22:07;1.68;;;1.44;;
60641;SDS011;46837;52.446;-1.930;2023-09-12T00:23:07;4.22;;;1.50;;
60641;SDS011;46837;52.446;-1.930;2023-09-12T00:24:07;2.08;;;1.42;;
60641;SDS011;46837;52.446;-1.930;2023-09-12T00:25:07;2.22;;;1.70;;
60641;SDS011;46837;52.446;-1.930;2023-09-12T00:26:07;4.38;;;1.48;;
60641;SDS011;46837;52.446;-1.930;2023-09-12T00:27:07;4.34;;;2.14;;
60641;SDS011;46837;52.446;-1.930;2023-09-12T00:28:07;3.56;;;1.88;;
60641;SDS011;46837;52.446;-1.930;2023-09-12T00:29:07;2.46;;;1.68;;
60641;SDS011;46837;52.446;-1.930;2023-09-12T00:30:07;2.46;;;1.86;;
60641;SDS011;46837;52.446;-1.930;2023-09-12T00:31:07;2.94;;;1.38;;
60641;SDS011;46837;52.446;-1.930;2023-09-12T00:32:07;3.48;;;1.96;;
60641;SDS011;46837;52.446;-1.930;2023-09-12T00:33:07;5.52;;;2.12;;
60641;SDS011;46837;52.446;-1.930;2023-09-12T00:34:07;2.96;;;2.00;;
60641;SDS011;46837;52.446;-1.930;2023-09-12T00:35:07;1.76;;;1.66;;
60641;SDS011;46837;52.446;-1.930;2023-09-12T00:36:07;2.78;;;1.62;;
60641;SDS011;46837;52.446;-1.930;2023-09-12T00:37:07;1.72;;;1.60;;
60641;SDS011;46837;52.446;-1.930;2023-09-12T00:38:08;3.90;;;1.78;;
60641;SDS011;46837;52.446;-1.930;2023-09-12T00:39:07;2.02;;;1.86;;
60641;SDS011;46837;52.446;-1.930;2023-09-12T00:40:07;5.50;;;1.76;;
60641;SDS011;46837;52.446;-1.930;2023-09-12T00:41:07;1.30;;;1.22;;
60641;SDS011;46837;52.446;-1.930;2023-09-12T00:42:08;1.98;;;1.56;;
60641;SDS011;46837;52.446;-1.930;2023-09-12T00:43:07;1.76;;;1.64;;
60641;SDS011;46837;52.446;-1.930;2023-09-12T00:44:07;3.18;;;2.30;;
60641;SDS011;46837;52.446;-1.930;2023-09-12T00:45:07;2.00;;;1.70;;
60641;SDS011;46837;52.446;-1.930;2023-09-12T00:46:07;4.80;;;1.86;;
60641;SDS011;46837;52.446;-1.930;2023-09-12T00:47:07;2.54;;;1.54;;
60641;SDS011;46837;52.446;-1.930;2023-09-12T00:48:07;3.40;;;1.96;;
60641;SDS011;46837;52.446;-1.930;2023-09-12T00:49:07;1.74;;;1.64;;
60641;SDS011;46837;52.446;-1.930;2023-09-12T00:50:07;1.70;;;1.50;;
60641;SDS011;46837;52.446;-1.930;2023-09-12T00:51:07;2.04;;;1.72;;
60641;SDS011;46837;52.446;-1.930;2023-09-12T00:52:07;2.06;;;1.64;;
60641;SDS011;46837;52.446;-1.930;2023-09-12T00:53:07;1.98;;;1.44;;
60641;SDS011;46837;52.446;-1.930;2023-09-12T00:54:07;3.28;;;2.36;;
60641;SDS011;46837;52.446;-1.930;2023-09-12T00:55:07;3.96;;;2.18;;
60641;SDS011;46837;52.446;-1.930;2023-09-12T00:56:07;4.00;;;2.44;;
60641;SDS011;46837;52.446;-1.930;2023-09-12T00:57:07;2.22;;;1.98;;
60641;SDS011;46837;52.446;-1.930;2023-09-12T00:58:07;3.30;;;1.88;;
60641;SDS011;46837;52.446;-1.930;2023-09-12T00:59:07;2.16;;;1.94;;
60641;SDS011;46837;52.446;-1.930;2023-09-12T01:00:11;3.66;;;2.28;;
60641;SDS011;46837;52.446;-1.930;2023-09-12T01:01:07;2.40;;;2.12;;
60641;SDS011;46837;52.446;-1.930;2023-09-12T01:02:07;4.52;;;1.64;;
60641;SDS011;46837;52.446;-1.930;2023-09-12T01:03:07;2.34;;;1.96;;
60641;SDS011;46837;52.446;-1.930;2023-09-12T01:04:07;3.42;;;1.64;;
60641;SDS011;46837;52.446;-1.930;2023-09-12T01:05:07;4.26;;;2.34;;
60641;SDS011;46837;52.446;-1.930;2023-09-12T01:06:07;2.62;;;2.42;;
60641;SDS011;46837;52.446;-1.930;2023-09-12T01:07:07;4.90;;;2.82;;
60641;SDS011;46837;52.446;-1.930;2023-09-12T01:08:07;4.56;;;2.86;;
60641;SDS011;46837;52.446;-1.930;2023-09-12T01:09:09;2.42;;;2.10;;
60641;SDS011;46837;52.446;-1.930;2023-09-12T01:10:07;2.60;;;2.40;;
60641;SDS011;46837;52.446;-1.930;2023-09-12T01:11:07;4.18;;;2.48;;
60641;SDS011;46837;52.446;-1.930;2023-09-12T01:12:07;4.52;;;2.86;;
60641;SDS011;46837;52.446;-1.930;2023-09-12T01:13:07;2.44;;;2.24;;
60641;SDS011;46837;52.446;-1.930;2023-09-12T01:14:07;4.56;;;2.52;;
60641;SDS011;46837;52.446;-1.930;2023-09-12T01:15:09;2.60;;;2.38;;
60641;SDS011;46837;52.446;-1.930;2023-09-12T01:16:07;2.88;;;2.66;;
60641;SDS011;46837;52.446;-1.930;2023-09-12T01:17:07;3.74;;;2.64;;
60641;SDS011;46837;52.446;-1.930;2023-09-12T01:18:07;3.30;;;2.56;;
60641;SDS011;46837;52.446;-1.930;2023-09-12T01:19:07;2.30;;;2.08;;
60641;SDS011;46837;52.446;-1.930;2023-09-12T01:20:07;6.76;;;3.48;;
60641;SDS011;46837;52.446;-1.930;2023-09-12T01:22:14;4.54;;;2.66;;
60641;SDS011;46837;52.446;-1.930;2023-09-12T01:25:07;6.30;;;3.16;;
60641;SDS011;46837;52.446;-1.930;2023-09-12T01:26:17;3.80;;;2.66;;
60641;SDS011;46837;52.446;-1.930;2023-09-12T01:28:07;4.04;;;2.74;;
60641;SDS011;46837;52.446;-1.930;2023-09-12T01:29:07;3.30;;;2.16;;
60641;SDS011;46837;52.446;-1.930;2023-09-12T01:30:07;3.34;;;2.78;;
60641;SDS011;46837;52.446;-1.930;2023-09-12T01:31:07;2.80;;;2.48;;
60641;SDS011;46837;52.446;-1.930;2023-09-12T01:32:07;3.52;;;2.42;;
60641;SDS011;46837;52.446;-1.930;2023-09-12T01:33:07;3.62;;;2.98;;
60641;SDS011;46837;52.446;-1.930;2023-09-12T01:34:10;4.42;;;2.62;;
60641;SDS011;46837;52.446;-1.930;2023-09-12T01:35:07;2.66;;;2.46;;
60641;SDS011;46837;52.446;-1.930;2023-09-12T01:36:08;5.64;;;2.92;;
60641;SDS011;46837;52.446;-1.930;2023-09-12T01:37:07;6.78;;;2.88;;
60641;SDS011;46837;52.446;-1.930;2023-09-12T01:38:07;3.28;;;2.60;;
60641;SDS011;46837;52.446;-1.930;2023-09-12T01:39:07;3.00;;;2.80;;
60641;SDS011;46837;52.446;-1.930;2023-09-12T01:40:07;4.74;;;2.58;;
60641;SDS011;46837;52.446;-1.930;2023-09-12T01:41:07;2.74;;;2.22;;
60641;SDS011;46837;52.446;-1.930;2023-09-12T01:42:08;3.22;;;2.40;;
60641;SDS011;46837;52.446;-1.930;2023-09-12T01:43:07;5.64;;;2.56;;
60641;SDS011;46837;52.446;-1.930;2023-09-12T01:44:07;4.24;;;3.04;;
60641;SDS011;46837;52.446;-1.930;2023-09-12T01:45:08;5.24;;;2.70;;
60641;SDS011;46837;52.446;-1.930;2023-09-12T01:46:07;4.50;;;2.94;;
60641;SDS011;46837;52.446;-1.930;2023-09-12T01:47:07;2.52;;;2.32;;
60641;SDS011;46837;52.446;-1.930;2023-09-12T01:48:07;3.34;;;2.96;;
60641;SDS011;46837;52.446;-1.930;2023-09-12T01:49:07;3.60;;;2.40;;
60641;SDS011;46837;52.446;-1.930;2023-09-12T01:50:08;5.76;;;2.54;;
60641;SDS011;46837;52.446;-1.930;2023-09-12T01:51:07;3.16;;;2.74;;
60641;SDS011;46837;52.446;-1.930;2023-09-12T01:52:07;3.30;;;2.48;;
60641;SDS011;46837;52.446;-1.930;2023-09-12T01:53:07;3.74;;;2.74;;
60641;SDS011;46837;52.446;-1.930;2023-09-12T01:54:07;3.66;;;2.74;;
60641;SDS011;46837;52.446;-1.930;2023-09-12T01:55:07;4.66;;;2.48;;
60641;SDS011;46837;52.446;-1.930;2023-09-12T01:56:07;9.64;;;2.84;;
60641;SDS011;46837;52.446;-1.930;2023-09-12T01:57:07;2.86;;;2.50;;
60641;SDS011;46837;52.446;-1.930;2023-09-12T01:58:07;3.56;;;2.62;;
60641;SDS011;46837;52.446;-1.930;2023-09-12T01:59:07;5.50;;;3.22;;
60641;SDS011;46837;52.446;-1.930;2023-09-12T02:00:07;5.22;;;3.40;;
60641;SDS011;46837;52.446;-1.930;2023-09-12T02:01:07;3.36;;;3.04;;
60641;SDS011;46837;52.446;-1.930;2023-09-12T02:02:07;3.34;;;2.84;;
60641;SDS011;46837;52.446;-1.930;2023-09-12T02:03:07;4.34;;;2.34;;
60641;SDS011;46837;52.446;-1.930;2023-09-12T02:04:09;6.94;;;3.20;;
60641;SDS011;46837;52.446;-1.930;2023-09-12T02:05:11;3.58;;;2.74;;
60641;SDS011;46837;52.446;-1.930;2023-09-12T02:06:07;3.48;;;3.14;;
60641;SDS011;46837;52.446;-1.930;2023-09-12T02:07:07;2.70;;;2.50;;
60641;SDS011;46837;52.446;-1.930;2023-09-12T02:08:07;4.34;;;2.56;;
60641;SDS011;46837;52.446;-1.930;2023-09-12T02:09:07;3.98;;;2.52;;
60641;SDS011;46837;52.446;-1.930;2023-09-12T02:10:07;8.28;;;3.44;;
60641;SDS011;46837;52.446;-1.930;2023-09-12T02:11:07;3.84;;;2.60;;
60641;SDS011;46837;52.446;-1.930;2023-09-12T02:12:07;2.92;;;2.10;;
60641;SDS011;46837;52.446;-1.930;2023-09-12T02:13:07;4.32;;;2.54;;
60641;SDS011;46837;52.446;-1.930;2023-09-12T02:14:07;6.96;;;3.38;;
60641;SDS011;46837;52.446;-1.930;2023-09-12T02:15:07;3.74;;;2.30;;
60641;SDS011;46837;52.446;-1.930;2023-09-12T02:16:07;3.98;;;2.68;;
60641;SDS011;46837;52.446;-1.930;2023-09-12T02:17:07;5.04;;;2.74;;
60641;SDS011;46837;52.446;-1.930;2023-09-12T02:18:07;5.68;;;3.76;;
60641;SDS011;46837;52.446;-1.930;2023-09-12T02:19:07;2.92;;;2.64;;
60641;SDS011;46837;52.446;-1.930;2023-09-12T02:20:07;2.74;;;2.54;;
60641;SDS011;46837;52.446;-1.930;2023-09-12T02:21:07;6.14;;;2.82;;
60641;SDS011;46837;52.446;-1.930;2023-09-12T02:22:07;2.42;;;2.14;;
60641;SDS011;46837;52.446;-1.930;2023-09-12T02:23:07;3.04;;;2.50;;
60641;SDS011;46837;52.446;-1.930;2023-09-12T02:24:07;5.16;;;2.26;;
60641;SDS011;46837;52.446;-1.930;2023-09-12T02:25:07;3.42;;;2.78;;
60641;SDS011;46837;52.446;-1.930;2023-09-12T02:26:07;3.10;;;1.92;;
60641;SDS011;46837;52.446;-1.930;2023-09-12T02:27:07;2.34;;;2.10;;
60641;SDS011;46837;52.446;-1.930;2023-09-12T02:28:07;2.52;;;2.28;;
60641;SDS011;46837;52.446;-1.930;2023-09-12T02:29:07;4.80;;;2.56;;
60641;SDS011;46837;52.446;-1.930;2023-09-12T02:30:07;3.38;;;2.24;;
60641;SDS011;46837;52.446;-1.930;2023-09-12T02:31:10;5.16;;;2.50;;
60641;SDS011;46837;52.446;-1.930;2023-09-12T02:32:07;2.88;;;2.26;;
60641;SDS011;46837;52.446;-1.930;2023-09-12T02:33:07;4.74;;;2.66;;
60641;SDS011;46837;52.446;-1.930;2023-09-12T02:34:07;2.78;;;2.50;;
60641;SDS011;46837;52.446;-1.930;2023-09-12T02:35:07;3.02;;;2.50;;
60641;SDS011;46837;52.446;-1.930;2023-09-12T02:36:07;2.84;;;2.64;;
60641;SDS011;46837;52.446;-1.930;2023-09-12T02:37:07;2.54;;;2.38;;
60641;SDS011;46837;52.446;-1.930;2023-09-12T02:38:07;4.54;;;2.58;;
60641;SDS011;46837;52.446;-1.930;2023-09-12T02:39:07;2.62;;;2.18;;
60641;SDS011;46837;52.446;-1.930;2023-09-12T02:40:07;2.54;;;2.34;;
60641;SDS011;46837;52.446;-1.930;2023-09-12T02:41:07;2.54;;;2.22;;
60641;SDS011;46837;52.446;-1.930;2023-09-12T02:42:07;2.60;;;1.70;;
60641;SDS011;46837;52.446;-1.930;2023-09-12T02:43:07;2.44;;;1.94;;
60641;SDS011;46837;52.446;-1.930;2023-09-12T02:44:07;3.88;;;1.92;;
60641;SDS011;46837;52.446;-1.930;2023-09-12T02:45:07;1.96;;;1.86;;
60641;SDS011;46837;52.446;-1.930;2023-09-12T02:46:07;3.24;;;2.42;;
60641;SDS011;46837;52.446;-1.930;2023-09-12T02:47:07;3.80;;;2.16;;
60641;SDS011;46837;52.446;-1.930;2023-09-12T02:48:07;4.26;;;2.94;;
60641;SDS011;46837;52.446;-1.930;2023-09-12T02:49:07;2.78;;;2.28;;
60641;SDS011;46837;52.446;-1.930;2023-09-12T02:50:07;1.84;;;1.72;;
60641;SDS011;46837;52.446;-1.930;2023-09-12T02:51:07;4.70;;;2.18;;
60641;SDS011;46837;52.446;-1.930;2023-09-12T02:52:07;4.36;;;2.68;;
60641;SDS011;46837;52.446;-1.930;2023-09-12T02:53:07;6.24;;;2.38;;
60641;SDS011;46837;52.446;-1.930;2023-09-12T02:54:07;1.96;;;1.84;;
60641;SDS011;46837;52.446;-1.930;2023-09-12T02:55:07;4.10;;;2.74;;
60641;SDS011;46837;52.446;-1.930;2023-09-12T02:56:07;2.98;;;1.86;;
60641;SDS011;46837;52.446;-1.930;2023-09-12T02:57:07;2.48;;;1.54;;
60641;SDS011;46837;52.446;-1.930;2023-09-12T02:58:07;2.40;;;1.98;;
60641;SDS011;46837;52.446;-1.930;2023-09-12T02:59:07;2.16;;;1.94;;
60641;SDS011;46837;52.446;-1.930;2023-09-12T03:00:08;3.76;;;1.94;;
60641;SDS011;46837;52.446;-1.930;2023-09-12T03:01:07;3.46;;;1.40;;
60641;SDS011;46837;52.446;-1.930;2023-09-12T03:02:07;2.86;;;2.52;;
60641;SDS011;46837;52.446;-1.930;2023-09-12T03:03:07;5.02;;;2.66;;
60641;SDS011;46837;52.446;-1.930;2023-09-12T03:04:07;2.76;;;2.22;;
60641;SDS011;46837;52.446;-1.930;2023-09-12T03:05:07;5.22;;;1.86;;
60641;SDS011;46837;52.446;-1.930;2023-09-12T03:06:07;5.78;;;2.24;;
60641;SDS011;46837;52.446;-1.930;2023-09-12T03:07:07;1.92;;;1.80;;
60641;SDS011;46837;52.446;-1.930;2023-09-12T03:08:07;3.08;;;1.90;;
60641;SDS011;46837;52.446;-1.930;2023-09-12T03:09:07;5.54;;;2.34;;
60641;SDS011;46837;52.446;-1.930;2023-09-12T03:10:07;2.60;;;2.24;;
60641;SDS011;46837;52.446;-1.930;2023-09-12T03:11:07;3.16;;;1.84;;
60641;SDS011;46837;52.446;-1.930;2023-09-12T03:12:07;2.96;;;1.62;;
60641;SDS011;46837;52.446;-1.930;2023-09-12T03:13:07;3.82;;;1.98;;
60641;SDS011;46837;52.446;-1.930;2023-09-12T03:14:07;3.36;;;1.50;;
60641;SDS011;46837;52.446;-1.930;2023-09-12T03:15:07;1.80;;;1.52;;
60641;SDS011;46837;52.446;-1.930;2023-09-12T03:16:10;3.34;;;1.84;;
60641;SDS011;46837;52.446;-1.930;2023-09-12T03:17:07;2.04;;;1.50;;
60641;SDS011;46837;52.446;-1.930;2023-09-12T03:18:09;2.54;;;1.60;;
60641;SDS011;46837;52.446;-1.930;2023-09-12T03:19:07;3.72;;;1.80;;
60641;SDS011;46837;52.446;-1.930;2023-09-12T03:20:09;3.50;;;1.70;;
60641;SDS011;46837;52.446;-1.930;2023-09-12T03:21:07;2.74;;;1.50;;
60641;SDS011;46837;52.446;-1.930;2023-09-12T03:22:07;3.06;;;1.64;;
60641;SDS011;46837;52.446;-1.930;2023-09-12T03:23:07;3.16;;;2.40;;
60641;SDS011;46837;52.446;-1.930;2023-09-12T03:24:07;2.36;;;1.44;;
60641;SDS011;46837;52.446;-1.930;2023-09-12T03:25:07;4.08;;;2.56;;
60641;SDS011;46837;52.446;-1.930;2023-09-12T03:26:07;1.96;;;1.78;;
60641;SDS011;46837;52.446;-1.930;2023-09-12T03:27:07;2.04;;;1.70;;
60641;SDS011;46837;52.446;-1.930;2023-09-12T03:28:07;1.80;;;1.54;;
60641;SDS011;46837;52.446;-1.930;2023-09-12T03:29:07;1.76;;;1.48;;
60641;SDS011;46837;52.446;-1.930;2023-09-12T03:30:07;1.64;;;1.40;;
60641;SDS011;46837;52.446;-1.930;2023-09-12T03:31:09;1.90;;;1.52;;
60641;SDS011;46837;52.446;-1.930;2023-09-12T03:32:07;2.90;;;1.52;;
60641;SDS011;46837;52.446;-1.930;2023-09-12T03:33:07;4.46;;;2.00;;
60641;SDS011;46837;52.446;-1.930;2023-09-12T03:34:07;2.10;;;1.48;;
60641;SDS011;46837;52.446;-1.930;2023-09-12T03:35:07;6.90;;;2.90;;
60641;SDS011;46837;52.446;-1.930;2023-09-12T03:36:07;5.34;;;1.88;;
60641;SDS011;46837;52.446;-1.930;2023-09-12T03:37:07;1.80;;;1.46;;
60641;SDS011;46837;52.446;-1.930;2023-09-12T03:38:07;2.80;;;1.64;;
60641;SDS011;46837;52.446;-1.930;2023-09-12T03:39:09;5.06;;;2.06;;
60641;SDS011;46837;52.446;-1.930;2023-09-12T03:40:07;2.74;;;1.60;;
60641;SDS011;46837;52.446;-1.930;2023-09-12T03:41:07;1.98;;;1.50;;
60641;SDS011;46837;52.446;-1.930;2023-09-12T03:42:07;5.96;;;1.64;;
60641;SDS011;46837;52.446;-1.930;2023-09-12T03:43:07;1.86;;;1.66;;
60641;SDS011;46837;52.446;-1.930;2023-09-12T03:44:07;1.96;;;1.86;;
60641;SDS011;46837;52.446;-1.930;2023-09-12T03:45:07;2.96;;;1.36;;
60641;SDS011;46837;52.446;-1.930;2023-09-12T03:46:07;2.02;;;1.66;;
60641;SDS011;46837;52.446;-1.930;2023-09-12T03:47:07;3.18;;;1.64;;
60641;SDS011;46837;52.446;-1.930;2023-09-12T03:48:07;3.58;;;1.78;;
60641;SDS011;46837;52.446;-1.930;2023-09-12T03:49:07;6.64;;;1.46;;
60641;SDS011;46837;52.446;-1.930;2023-09-12T03:50:07;1.66;;;1.48;;
60641;SDS011;46837;52.446;-1.930;2023-09-12T03:51:07;2.04;;;1.48;;
60641;SDS011;46837;52.446;-1.930;2023-09-12T03:52:07;2.48;;;1.64;;
60641;SDS011;46837;52.446;-1.930;2023-09-12T03:53:07;2.24;;;1.26;;
60641;SDS011;46837;52.446;-1.930;2023-09-12T03:54:07;2.84;;;1.38;;
60641;SDS011;46837;52.446;-1.930;2023-09-12T03:55:07;4.10;;;1.78;;
60641;SDS011;46837;52.446;-1.930;2023-09-12T03:56:07;5.58;;;1.96;;
60641;SDS011;46837;52.446;-1.930;2023-09-12T03:57:07;2.18;;;1.42;;
60641;SDS011;46837;52.446;-1.930;2023-09-12T03:58:07;4.46;;;1.54;;
60641;SDS011;46837;52.446;-1.930;2023-09-12T03:59:07;2.36;;;1.54;;
60641;SDS011;46837;52.446;-1.930;2023-09-12T04:00:07;2.78;;;1.60;;
60641;SDS011;46837;52.446;-1.930;2023-09-12T04:01:07;2.08;;;1.70;;
60641;SDS011;46837;52.446;-1.930;2023-09-12T04:02:07;3.16;;;1.52;;
60641;SDS011;46837;52.446;-1.930;2023-09-12T04:03:07;3.40;;;1.78;;
60641;SDS011;46837;52.446;-1.930;2023-09-12T04:04:07;2.94;;;1.98;;
60641;SDS011;46837;52.446;-1.930;2023-09-12T04:05:07;2.64;;;2.10;;
60641;SDS011;46837;52.446;-1.930;2023-09-12T04:06:07;3.00;;;1.60;;
60641;SDS011;46837;52.446;-1.930;2023-09-12T04:07:07;3.62;;;1.54;;
60641;SDS011;46837;52.446;-1.930;2023-09-12T04:08:07;4.78;;;1.68;;
60641;SDS011;46837;52.446;-1.930;2023-09-12T04:09:07;3.64;;;2.08;;
60641;SDS011;46837;52.446;-1.930;2023-09-12T04:10:07;2.48;;;1.96;;
60641;SDS011;46837;52.446;-1.930;2023-09-12T04:11:07;5.10;;;1.48;;
60641;SDS011;46837;52.446;-1.930;2023-09-12T04:12:07;2.30;;;1.90;;
60641;SDS011;46837;52.446;-1.930;2023-09-12T04:13:07;2.26;;;1.42;;
60641;SDS011;46837;52.446;-1.930;2023-09-12T04:14:07;5.90;;;2.38;;
60641;SDS011;46837;52.446;-1.930;2023-09-12T04:15:07;6.24;;;1.98;;
60641;SDS011;46837;52.446;-1.930;2023-09-12T04:16:07;5.22;;;2.02;;
60641;SDS011;46837;52.446;-1.930;2023-09-12T04:17:07;6.80;;;2.32;;
60641;SDS011;46837;52.446;-1.930;2023-09-12T04:18:07;2.94;;;1.74;;
60641;SDS011;46837;52.446;-1.930;2023-09-12T04:19:07;3.20;;;1.80;;
60641;SDS011;46837;52.446;-1.930;2023-09-12T04:20:07;4.86;;;1.90;;
60641;SDS011;46837;52.446;-1.930;2023-09-12T04:21:07;3.32;;;1.72;;
60641;SDS011;46837;52.446;-1.930;2023-09-12T04:22:07;3.20;;;1.82;;
60641;SDS011;46837;52.446;-1.930;2023-09-12T04:23:07;8.80;;;2.32;;
60641;SDS011;46837;52.446;-1.930;2023-09-12T04:24:07;1.64;;;1.54;;
60641;SDS011;46837;52.446;-1.930;2023-09-12T04:25:07;4.04;;;2.16;;
60641;SDS011;46837;52.446;-1.930;2023-09-12T04:26:07;6.82;;;3.92;;
60641;SDS011;46837;52.446;-1.930;2023-09-12T04:27:07;5.16;;;2.22;;
60641;SDS011;46837;52.446;-1.930;2023-09-12T04:28:07;2.56;;;1.78;;
60641;SDS011;46837;52.446;-1.930;2023-09-12T04:29:07;3.24;;;1.88;;
60641;SDS011;46837;52.446;-1.930;2023-09-12T04:30:07;4.04;;;1.78;;
60641;SDS011;46837;52.446;-1.930;2023-09-12T04:31:07;2.70;;;1.86;;
60641;SDS011;46837;52.446;-1.930;2023-09-12T04:32:07;4.14;;;1.98;;
60641;SDS011;46837;52.446;-1.930;2023-09-12T04:33:07;4.04;;;2.36;;
60641;SDS011;46837;52.446;-1.930;2023-09-12T04:34:07;2.98;;;2.50;;
60641;SDS011;46837;52.446;-1.930;2023-09-12T04:35:07;4.08;;;2.98;;
60641;SDS011;46837;52.446;-1.930;2023-09-12T04:36:07;5.12;;;2.74;;
60641;SDS011;46837;52.446;-1.930;2023-09-12T04:37:07;3.32;;;1.84;;
60641;SDS011;46837;52.446;-1.930;2023-09-12T04:38:07;6.66;;;2.88;;
60641;SDS011;46837;52.446;-1.930;2023-09-12T04:39:07;4.46;;;2.74;;
60641;SDS011;46837;52.446;-1.930;2023-09-12T04:40:07;3.12;;;2.52;;
60641;SDS011;46837;52.446;-1.930;2023-09-12T04:41:07;4.78;;;2.66;;
60641;SDS011;46837;52.446;-1.930;2023-09-12T04:42:07;5.54;;;3.04;;
60641;SDS011;46837;52.446;-1.930;2023-09-12T04:43:07;2.94;;;2.48;;
60641;SDS011;46837;52.446;-1.930;2023-09-12T04:44:07;4.26;;;3.12;;
60641;SDS011;46837;52.446;-1.930;2023-09-12T04:45:07;4.04;;;3.06;;
60641;SDS011;46837;52.446;-1.930;2023-09-12T04:46:07;3.14;;;2.70;;
60641;SDS011;46837;52.446;-1.930;2023-09-12T04:47:07;3.30;;;2.98;;
60641;SDS011;46837;52.446;-1.930;2023-09-12T04:48:07;5.00;;;3.26;;
60641;SDS011;46837;52.446;-1.930;2023-09-12T04:49:07;2.74;;;2.28;;
60641;SDS011;46837;52.446;-1.930;2023-09-12T04:50:07;3.90;;;2.60;;
60641;SDS011;46837;52.446;-1.930;2023-09-12T04:51:07;4.54;;;3.38;;
60641;SDS011;46837;52.446;-1.930;2023-09-12T04:52:07;5.72;;;3.02;;
60641;SDS011;46837;52.446;-1.930;2023-09-12T04:53:07;6.42;;;2.72;;
60641;SDS011;46837;52.446;-1.930;2023-09-12T04:54:07;6.38;;;2.56;;
60641;SDS011;46837;52.446;-1.930;2023-09-12T04:55:07;3.52;;;3.24;;
60641;SDS011;46837;52.446;-1.930;2023-09-12T04:56:07;4.20;;;3.56;;
60641;SDS011;46837;52.446;-1.930;2023-09-12T04:57:07;4.06;;;3.22;;
60641;SDS011;46837;52.446;-1.930;2023-09-12T04:58:07;2.90;;;2.60;;
60641;SDS011;46837;52.446;-1.930;2023-09-12T04:59:07;4.32;;;3.44;;
60641;SDS011;46837;52.446;-1.930;2023-09-12T05:00:07;5.88;;;3.52;;
60641;SDS011;46837;52.446;-1.930;2023-09-12T05:01:07;6.84;;;3.56;;
60641;SDS011;46837;52.446;-1.930;2023-09-12T05:02:07;5.06;;;3.52;;
60641;SDS011;46837;52.446;-1.930;2023-09-12T05:03:07;3.40;;;3.10;;
60641;SDS011;46837;52.446;-1.930;2023-09-12T05:04:07;3.60;;;3.30;;
60641;SDS011;46837;52.446;-1.930;2023-09-12T05:05:07;3.96;;;3.38;;
60641;SDS011;46837;52.446;-1.930;2023-09-12T05:06:07;4.74;;;2.96;;
60641;SDS011;46837;52.446;-1.930;2023-09-12T05:07:07;3.62;;;3.34;;
60641;SDS011;46837;52.446;-1.930;2023-09-12T05:08:07;6.56;;;3.92;;
60641;SDS011;46837;52.446;-1.930;2023-09-12T05:09:07;5.48;;;3.98;;
60641;SDS011;46837;52.446;-1.930;2023-09-12T05:10:07;4.12;;;3.88;;
60641;SDS011;46837;52.446;-1.930;2023-09-12T05:11:07;4.54;;;3.02;;
60641;SDS011;46837;52.446;-1.930;2023-09-12T05:12:07;5.84;;;4.12;;
60641;SDS011;46837;52.446;-1.930;2023-09-12T05:13:07;4.92;;;3.16;;
60641;SDS011;46837;52.446;-1.930;2023-09-12T05:14:07;6.14;;;4.06;;
60641;SDS011;46837;52.446;-1.930;2023-09-12T05:15:07;4.56;;;3.24;;
60641;SDS011;46837;52.446;-1.930;2023-09-12T05:16:07;5.64;;;4.30;;
60641;SDS011;46837;52.446;-1.930;2023-09-12T05:17:07;4.04;;;3.66;;
60641;SDS011;46837;52.446;-1.930;2023-09-12T05:18:07;4.62;;;4.08;;
60641;SDS011;46837;52.446;-1.930;2023-09-12T05:19:07;6.26;;;4.14;;
60641;SDS011;46837;52.446;-1.930;2023-09-12T05:20:07;4.18;;;3.88;;
60641;SDS011;46837;52.446;-1.930;2023-09-12T05:21:07;3.56;;;3.18;;
60641;SDS011;46837;52.446;-1.930;2023-09-12T05:22:07;5.26;;;3.82;;
60641;SDS011;46837;52.446;-1.930;2023-09-12T05:23:07;4.06;;;2.82;;
60641;SDS011;46837;52.446;-1.930;2023-09-12T05:24:07;5.42;;;3.20;;
60641;SDS011;46837;52.446;-1.930;2023-09-12T05:25:07;5.94;;;3.78;;
60641;SDS011;46837;52.446;-1.930;2023-09-12T05:26:07;5.68;;;3.16;;
60641;SDS011;46837;52.446;-1.930;2023-09-12T05:27:07;3.40;;;3.12;;
60641;SDS011;46837;52.446;-1.930;2023-09-12T05:28:07;4.14;;;3.46;;
60641;SDS011;46837;52.446;-1.930;2023-09-12T05:29:07;9.64;;;4.46;;
60641;SDS011;46837;52.446;-1.930;2023-09-12T05:30:07;5.62;;;3.60;;
60641;SDS011;46837;52.446;-1.930;2023-09-12T05:31:07;5.52;;;3.64;;
60641;SDS011;46837;52.446;-1.930;2023-09-12T05:32:07;4.86;;;3.70;;
60641;SDS011;46837;52.446;-1.930;2023-09-12T05:33:07;4.02;;;3.68;;
60641;SDS011;46837;52.446;-1.930;2023-09-12T05:34:07;6.08;;;3.56;;
60641;SDS011;46837;52.446;-1.930;2023-09-12T05:35:07;4.56;;;4.16;;
60641;SDS011;46837;52.446;-1.930;2023-09-12T05:36:07;4.90;;;3.92;;
60641;SDS011;46837;52.446;-1.930;2023-09-12T05:37:07;3.50;;;3.20;;
60641;SDS011;46837;52.446;-1.930;2023-09-12T05:38:07;3.36;;;2.96;;
60641;SDS011;46837;52.446;-1.930;2023-09-12T05:39:07;4.56;;;4.10;;
60641;SDS011;46837;52.446;-1.930;2023-09-12T05:40:07;9.10;;;4.08;;
60641;SDS011;46837;52.446;-1.930;2023-09-12T05:41:07;5.24;;;3.42;;
60641;SDS011;46837;52.446;-1.930;2023-09-12T05:42:07;4.82;;;3.46;;
60641;SDS011;46837;52.446;-1.930;2023-09-12T05:43:07;4.12;;;3.00;;
60641;SDS011;46837;52.446;-1.930;2023-09-12T05:44:07;3.64;;;2.82;;
60641;SDS011;46837;52.446;-1.930;2023-09-12T05:45:07;10.96;;;5.72;;
60641;SDS011;46837;52.446;-1.930;2023-09-12T05:46:07;3.16;;;2.86;;
60641;SDS011;46837;52.446;-1.930;2023-09-12T05:47:07;3.42;;;2.54;;
60641;SDS011;46837;52.446;-1.930;2023-09-12T05:48:07;3.16;;;2.56;;
60641;SDS011;46837;52.446;-1.930;2023-09-12T05:49:07;7.00;;;2.84;;
60641;SDS011;46837;52.446;-1.930;2023-09-12T05:50:07;3.00;;;2.44;;
60641;SDS011;46837;52.446;-1.930;2023-09-12T05:51:07;6.46;;;3.34;;
60641;SDS011;46837;52.446;-1.930;2023-09-12T05:52:07;4.32;;;1.98;;
60641;SDS011;46837;52.446;-1.930;2023-09-12T05:53:07;2.80;;;2.60;;
60641;SDS011;46837;52.446;-1.930;2023-09-12T05:54:07;2.80;;;2.60;;
60641;SDS011;46837;52.446;-1.930;2023-09-12T05:55:07;3.16;;;2.96;;
60641;SDS011;46837;52.446;-1.930;2023-09-12T05:56:07;2.58;;;2.38;;
60641;SDS011;46837;52.446;-1.930;2023-09-12T05:57:07;8.40;;;3.36;;
60641;SDS011;46837;52.446;-1.930;2023-09-12T05:58:07;6.50;;;4.04;;
60641;SDS011;46837;52.446;-1.930;2023-09-12T05:59:07;4.72;;;3.38;;